sensor_id;sensor_type;location;lat;lon;timestamp;P1;durP1;ratioP1;P2;durP2;ratioP2
23768;SDS011;12064;50.890;5.424;2022-08-11T00:07:06;2.67;;;1.80;;
23768;SDS011;12064;50.890;5.424;2022-08-11T00:15:58;3.33;;;2.30;;
23768;SDS011;12064;50.890;5.424;2022-08-11T00:24:50;2.40;;;2.20;;
23768;SDS011;12064;50.890;5.424;2022-08-11T00:33:42;2.58;;;2.17;;
23768;SDS011;12064;50.890;5.424;2022-08-11T00:52:07;2.55;;;2.35;;
23768;SDS011;12064;50.890;5.424;2022-08-11T01:01:09;3.17;;;2.10;;
23768;SDS011;12064;50.890;5.424;2022-08-11T01:48:53;2.50;;;2.30;;
23768;SDS011;12064;50.890;5.424;2022-08-11T02:07:35;2.20;;;2.00;;
23768;SDS011;12064;50.890;5.424;2022-08-11T02:16:46;2.85;;;2.20;;
23768;SDS011;12064;50.890;5.424;2022-08-11T02:43:51;2.20;;;2.00;;
23768;SDS011;12064;50.890;5.424;2022-08-11T03:21:31;2.63;;;2.17;;
23768;SDS011;12064;50.890;5.424;2022-08-11T03:49:52;2.55;;;1.80;;
23768;SDS011;12064;50.890;5.424;2022-08-11T05:23:31;5.15;;;3.38;;
23768;SDS011;12064;50.890;5.424;2022-08-11T05:32:44;9.55;;;3.92;;
23768;SDS011;12064;50.890;5.424;2022-08-11T05:41:56;7.38;;;3.95;;
23768;SDS011;12064;50.890;5.424;2022-08-11T05:51:08;8.63;;;3.90;;
23768;SDS011;12064;50.890;5.424;2022-08-11T06:00:18;8.75;;;3.70;;
23768;SDS011;12064;50.890;5.424;2022-08-11T06:09:09;13.60;;;4.03;;
23768;SDS011;12064;50.890;5.424;2022-08-11T06:18:03;14.85;;;3.70;;
23768;SDS011;12064;50.890;5.424;2022-08-11T06:26:57;8.43;;;3.72;;
23768;SDS011;12064;50.890;5.424;2022-08-11T06:45:36;8.70;;;3.23;;
23768;SDS011;12064;50.890;5.424;2022-08-11T06:54:48;10.52;;;3.20;;
23768;SDS011;12064;50.890;5.424;2022-08-11T07:03:47;5.00;;;3.17;;
23768;SDS011;12064;50.890;5.424;2022-08-11T07:13:00;12.02;;;3.20;;
23768;SDS011;12064;50.890;5.424;2022-08-11T07:40:24;4.72;;;3.22;;
23768;SDS011;12064;50.890;5.424;2022-08-11T07:58:48;5.30;;;3.05;;
23768;SDS011;12064;50.890;5.424;2022-08-11T08:07:58;7.47;;;3.33;;
23768;SDS011;12064;50.890;5.424;2022-08-11T08:17:08;7.03;;;3.03;;
23768;SDS011;12064;50.890;5.424;2022-08-11T08:26:17;4.40;;;2.90;;
23768;SDS011;12064;50.890;5.424;2022-08-11T08:35:27;3.63;;;2.90;;
23768;SDS011;12064;50.890;5.424;2022-08-11T08:44:19;3.00;;;2.70;;
23768;SDS011;12064;50.890;5.424;2022-08-11T08:53:11;4.05;;;3.20;;
23768;SDS011;12064;50.890;5.424;2022-08-11T09:02:06;5.82;;;2.75;;
23768;SDS011;12064;50.890;5.424;2022-08-11T09:11:03;4.18;;;3.00;;
23768;SDS011;12064;50.890;5.424;2022-08-11T09:29:11;4.45;;;3.00;;
23768;SDS011;12064;50.890;5.424;2022-08-11T09:38:04;3.22;;;2.92;;
23768;SDS011;12064;50.890;5.424;2022-08-11T09:47:23;3.40;;;3.05;;
23768;SDS011;12064;50.890;5.424;2022-08-11T09:56:21;3.40;;;3.10;;
23768;SDS011;12064;50.890;5.424;2022-08-11T10:05:32;3.80;;;2.90;;
23768;SDS011;12064;50.890;5.424;2022-08-11T10:14:45;3.75;;;2.80;;
23768;SDS011;12064;50.890;5.424;2022-08-11T10:33:40;3.40;;;3.03;;
23768;SDS011;12064;50.890;5.424;2022-08-11T10:42:50;3.28;;;2.97;;
23768;SDS011;12064;50.890;5.424;2022-08-11T10:51:52;4.03;;;3.20;;
23768;SDS011;12064;50.890;5.424;2022-08-11T11:01:05;3.45;;;2.65;;
23768;SDS011;12064;50.890;5.424;2022-08-11T11:09:56;4.38;;;2.80;;
23768;SDS011;12064;50.890;5.424;2022-08-11T11:18:51;2.92;;;2.70;;
23768;SDS011;12064;50.890;5.424;2022-08-11T11:36:48;3.35;;;3.05;;
23768;SDS011;12064;50.890;5.424;2022-08-11T11:45:52;3.38;;;3.03;;
23768;SDS011;12064;50.890;5.424;2022-08-11T11:54:43;3.47;;;3.17;;
23768;SDS011;12064;50.890;5.424;2022-08-11T12:03:40;3.78;;;3.28;;
23768;SDS011;12064;50.890;5.424;2022-08-11T12:12:34;2.83;;;2.63;;
23768;SDS011;12064;50.890;5.424;2022-08-11T12:21:43;3.75;;;2.80;;
23768;SDS011;12064;50.890;5.424;2022-08-11T12:31:10;3.13;;;2.83;;
23768;SDS011;12064;50.890;5.424;2022-08-11T12:40:02;2.70;;;2.50;;
23768;SDS011;12064;50.890;5.424;2022-08-11T12:49:18;3.08;;;2.80;;
23768;SDS011;12064;50.890;5.424;2022-08-11T12:58:28;3.25;;;2.95;;
23768;SDS011;12064;50.890;5.424;2022-08-11T13:07:19;2.92;;;2.72;;
23768;SDS011;12064;50.890;5.424;2022-08-11T13:16:11;3.00;;;2.70;;
23768;SDS011;12064;50.890;5.424;2022-08-11T13:25:06;3.15;;;2.85;;
23768;SDS011;12064;50.890;5.424;2022-08-11T13:34:00;2.85;;;2.65;;
23768;SDS011;12064;50.890;5.424;2022-08-11T13:42:57;3.17;;;2.90;;
23768;SDS011;12064;50.890;5.424;2022-08-11T13:51:48;3.25;;;2.95;;
23768;SDS011;12064;50.890;5.424;2022-08-11T14:00:40;2.92;;;2.67;;
23768;SDS011;12064;50.890;5.424;2022-08-11T14:09:38;2.90;;;2.70;;
23768;SDS011;12064;50.890;5.424;2022-08-11T14:18:31;2.70;;;2.50;;
23768;SDS011;12064;50.890;5.424;2022-08-11T14:27:27;3.15;;;2.85;;
23768;SDS011;12064;50.890;5.424;2022-08-11T14:36:23;3.47;;;2.70;;
23768;SDS011;12064;50.890;5.424;2022-08-11T14:45:19;2.72;;;2.53;;
23768;SDS011;12064;50.890;5.424;2022-08-11T14:54:29;2.70;;;2.50;;
23768;SDS011;12064;50.890;5.424;2022-08-11T15:03:39;2.92;;;2.63;;
23768;SDS011;12064;50.890;5.424;2022-08-11T15:12:30;2.45;;;2.25;;
23768;SDS011;12064;50.890;5.424;2022-08-11T15:21:22;2.67;;;2.47;;
23768;SDS011;12064;50.890;5.424;2022-08-11T15:30:31;2.53;;;2.33;;
23768;SDS011;12064;50.890;5.424;2022-08-11T15:40:00;2.40;;;2.30;;
23768;SDS011;12064;50.890;5.424;2022-08-11T15:49:11;2.63;;;2.42;;
23768;SDS011;12064;50.890;5.424;2022-08-11T16:07:44;2.60;;;2.38;;
23768;SDS011;12064;50.890;5.424;2022-08-11T16:16:38;2.53;;;2.33;;
23768;SDS011;12064;50.890;5.424;2022-08-11T16:25:32;2.45;;;2.22;;
23768;SDS011;12064;50.890;5.424;2022-08-11T16:34:26;2.50;;;2.30;;
23768;SDS011;12064;50.890;5.424;2022-08-11T16:43:51;2.55;;;2.35;;
23768;SDS011;12064;50.890;5.424;2022-08-11T16:53:01;2.40;;;2.20;;
23768;SDS011;12064;50.890;5.424;2022-08-11T17:01:57;2.65;;;2.45;;
23768;SDS011;12064;50.890;5.424;2022-08-11T17:11:09;2.60;;;2.40;;
23768;SDS011;12064;50.890;5.424;2022-08-11T17:20:19;3.03;;;2.25;;
23768;SDS011;12064;50.890;5.424;2022-08-11T17:29:10;2.42;;;2.22;;
23768;SDS011;12064;50.890;5.424;2022-08-11T17:38:15;6.65;;;2.50;;
23768;SDS011;12064;50.890;5.424;2022-08-11T17:47:09;3.22;;;2.42;;
23768;SDS011;12064;50.890;5.424;2022-08-11T17:56:20;2.60;;;2.40;;
23768;SDS011;12064;50.890;5.424;2022-08-11T18:05:31;2.78;;;2.20;;
23768;SDS011;12064;50.890;5.424;2022-08-11T18:14:24;2.30;;;2.10;;
23768;SDS011;12064;50.890;5.424;2022-08-11T18:23:36;2.50;;;2.30;;
23768;SDS011;12064;50.890;5.424;2022-08-11T18:32:45;2.20;;;2.10;;
23768;SDS011;12064;50.890;5.424;2022-08-11T18:41:57;2.67;;;2.47;;
23768;SDS011;12064;50.890;5.424;2022-08-11T18:51:10;2.70;;;2.50;;
23768;SDS011;12064;50.890;5.424;2022-08-11T19:00:21;2.45;;;2.22;;
23768;SDS011;12064;50.890;5.424;2022-08-11T19:09:35;2.25;;;2.15;;
23768;SDS011;12064;50.890;5.424;2022-08-11T19:18:47;2.88;;;2.35;;
23768;SDS011;12064;50.890;5.424;2022-08-11T19:28:00;4.85;;;2.67;;
23768;SDS011;12064;50.890;5.424;2022-08-11T19:37:13;1.92;;;1.83;;
23768;SDS011;12064;50.890;5.424;2022-08-11T19:46:33;2.40;;;2.20;;
23768;SDS011;12064;50.890;5.424;2022-08-11T19:55:54;2.10;;;2.00;;
23768;SDS011;12064;50.890;5.424;2022-08-11T20:05:04;2.47;;;2.20;;
23768;SDS011;12064;50.890;5.424;2022-08-11T20:14:14;2.72;;;2.10;;
23768;SDS011;12064;50.890;5.424;2022-08-11T20:23:25;1.95;;;1.80;;
23768;SDS011;12064;50.890;5.424;2022-08-11T20:32:35;2.25;;;2.05;;
23768;SDS011;12064;50.890;5.424;2022-08-11T20:51:10;3.40;;;2.47;;
23768;SDS011;12064;50.890;5.424;2022-08-11T21:00:20;2.83;;;2.50;;
23768;SDS011;12064;50.890;5.424;2022-08-11T21:18:43;2.72;;;2.53;;
23768;SDS011;12064;50.890;5.424;2022-08-11T21:27:58;2.72;;;2.53;;
23768;SDS011;12064;50.890;5.424;2022-08-11T21:37:10;3.40;;;2.97;;
23768;SDS011;12064;50.890;5.424;2022-08-11T21:46:38;4.20;;;2.80;;
23768;SDS011;12064;50.890;5.424;2022-08-11T21:55:49;4.20;;;3.10;;
23768;SDS011;12064;50.890;5.424;2022-08-11T22:05:09;3.50;;;3.13;;
23768;SDS011;12064;50.890;5.424;2022-08-11T22:14:19;4.70;;;3.38;;
23768;SDS011;12064;50.890;5.424;2022-08-11T22:23:28;5.25;;;3.50;;
23768;SDS011;12064;50.890;5.424;2022-08-11T22:32:43;4.55;;;3.47;;
23768;SDS011;12064;50.890;5.424;2022-08-11T22:51:07;3.88;;;3.47;;
23768;SDS011;12064;50.890;5.424;2022-08-11T23:00:16;4.07;;;3.50;;
23768;SDS011;12064;50.890;5.424;2022-08-11T23:09:31;4.25;;;3.40;;
23768;SDS011;12064;50.890;5.424;2022-08-11T23:27:54;4.88;;;3.60;;
23768;SDS011;12064;50.890;5.424;2022-08-11T23:37:06;3.80;;;3.50;;
23768;SDS011;12064;50.890;5.424;2022-08-11T23:46:18;3.60;;;3.30;;
23768;SDS011;12064;50.890;5.424;2022-08-11T23:55:43;5.30;;;3.63;;
